sensor_id;sensor_type;location;lat;lon;timestamp;P1;durP1;ratioP1;P2;durP2;ratioP2
8929;SDS011;4500;49.074;9.110;2024-03-29T00:01:52;1.13;;;1.13;;
8929;SDS011;4500;49.074;9.110;2024-03-29T00:04:18;1.23;;;1.23;;
8929;SDS011;4500;49.074;9.110;2024-03-29T00:06:44;1.30;;;1.30;;
8929;SDS011;4500;49.074;9.110;2024-03-29T00:09:09;1.00;;;1.00;;
8929;SDS011;4500;49.074;9.110;2024-03-29T00:11:35;2.13;;;2.03;;
8929;SDS011;4500;49.074;9.110;2024-03-29T00:14:01;1.30;;;1.30;;
8929;SDS011;4500;49.074;9.110;2024-03-29T00:16:27;1.10;;;1.10;;
8929;SDS011;4500;49.074;9.110;2024-03-29T00:18:52;1.10;;;1.10;;
8929;SDS011;4500;49.074;9.110;2024-03-29T00:21:18;1.10;;;1.10;;
8929;SDS011;4500;49.074;9.110;2024-03-29T00:23:44;1.67;;;1.57;;
8929;SDS011;4500;49.074;9.110;2024-03-29T00:26:10;1.30;;;1.30;;
8929;SDS011;4500;49.074;9.110;2024-03-29T00:28:37;1.77;;;1.67;;
8929;SDS011;4500;49.074;9.110;2024-03-29T00:31:03;1.40;;;1.40;;
8929;SDS011;4500;49.074;9.110;2024-03-29T00:33:29;1.43;;;1.43;;
8929;SDS011;4500;49.074;9.110;2024-03-29T00:35:55;1.17;;;1.17;;
8929;SDS011;4500;49.074;9.110;2024-03-29T00:38:21;1.43;;;1.43;;
8929;SDS011;4500;49.074;9.110;2024-03-29T00:40:47;0.83;;;0.83;;
8929;SDS011;4500;49.074;9.110;2024-03-29T00:43:13;1.17;;;1.17;;
8929;SDS011;4500;49.074;9.110;2024-03-29T00:45:38;1.77;;;1.67;;
8929;SDS011;4500;49.074;9.110;2024-03-29T00:48:05;1.10;;;1.10;;
8929;SDS011;4500;49.074;9.110;2024-03-29T00:50:31;1.70;;;1.67;;
8929;SDS011;4500;49.074;9.110;2024-03-29T00:52:56;1.20;;;1.20;;
8929;SDS011;4500;49.074;9.110;2024-03-29T00:55:22;1.10;;;1.10;;
8929;SDS011;4500;49.074;9.110;2024-03-29T00:57:48;0.93;;;0.93;;
8929;SDS011;4500;49.074;9.110;2024-03-29T01:00:14;1.20;;;1.20;;
8929;SDS011;4500;49.074;9.110;2024-03-29T01:02:39;1.70;;;1.63;;
8929;SDS011;4500;49.074;9.110;2024-03-29T01:05:05;1.10;;;1.10;;
8929;SDS011;4500;49.074;9.110;2024-03-29T01:07:32;1.10;;;1.10;;
8929;SDS011;4500;49.074;9.110;2024-03-29T01:09:58;1.40;;;1.40;;
8929;SDS011;4500;49.074;9.110;2024-03-29T01:12:24;1.20;;;1.20;;
8929;SDS011;4500;49.074;9.110;2024-03-29T01:14:50;1.00;;;1.00;;
8929;SDS011;4500;49.074;9.110;2024-03-29T01:17:16;1.10;;;1.10;;
8929;SDS011;4500;49.074;9.110;2024-03-29T01:19:41;1.70;;;1.60;;
8929;SDS011;4500;49.074;9.110;2024-03-29T01:22:07;1.20;;;1.20;;
8929;SDS011;4500;49.074;9.110;2024-03-29T01:24:33;1.33;;;1.33;;
8929;SDS011;4500;49.074;9.110;2024-03-29T01:26:59;1.50;;;1.50;;
8929;SDS011;4500;49.074;9.110;2024-03-29T01:29:25;1.00;;;1.00;;
8929;SDS011;4500;49.074;9.110;2024-03-29T01:31:51;0.90;;;0.90;;
8929;SDS011;4500;49.074;9.110;2024-03-29T01:34:16;1.20;;;1.20;;
8929;SDS011;4500;49.074;9.110;2024-03-29T01:36:42;1.30;;;1.30;;
8929;SDS011;4500;49.074;9.110;2024-03-29T01:39:08;1.10;;;1.10;;
8929;SDS011;4500;49.074;9.110;2024-03-29T01:41:38;2.33;;;2.23;;
8929;SDS011;4500;49.074;9.110;2024-03-29T01:44:04;0.90;;;0.90;;
8929;SDS011;4500;49.074;9.110;2024-03-29T01:46:30;1.00;;;1.00;;
8929;SDS011;4500;49.074;9.110;2024-03-29T01:48:59;1.17;;;1.17;;
8929;SDS011;4500;49.074;9.110;2024-03-29T01:51:25;1.27;;;1.27;;
8929;SDS011;4500;49.074;9.110;2024-03-29T01:53:51;1.00;;;1.00;;
8929;SDS011;4500;49.074;9.110;2024-03-29T01:56:18;1.10;;;1.10;;
8929;SDS011;4500;49.074;9.110;2024-03-29T01:58:45;1.10;;;1.10;;
8929;SDS011;4500;49.074;9.110;2024-03-29T02:01:11;1.17;;;1.17;;
8929;SDS011;4500;49.074;9.110;2024-03-29T02:03:37;1.47;;;1.47;;
8929;SDS011;4500;49.074;9.110;2024-03-29T02:06:03;1.10;;;1.10;;
8929;SDS011;4500;49.074;9.110;2024-03-29T02:08:30;1.40;;;1.40;;
8929;SDS011;4500;49.074;9.110;2024-03-29T02:10:56;1.00;;;1.00;;
8929;SDS011;4500;49.074;9.110;2024-03-29T02:13:23;1.20;;;1.20;;
8929;SDS011;4500;49.074;9.110;2024-03-29T02:15:49;1.60;;;1.60;;
8929;SDS011;4500;49.074;9.110;2024-03-29T02:18:15;1.20;;;1.20;;
8929;SDS011;4500;49.074;9.110;2024-03-29T02:20:41;1.30;;;1.30;;
8929;SDS011;4500;49.074;9.110;2024-03-29T02:23:07;1.00;;;1.00;;
8929;SDS011;4500;49.074;9.110;2024-03-29T02:25:36;1.00;;;1.00;;
8929;SDS011;4500;49.074;9.110;2024-03-29T02:28:02;1.10;;;1.10;;
8929;SDS011;4500;49.074;9.110;2024-03-29T02:30:29;1.10;;;1.10;;
8929;SDS011;4500;49.074;9.110;2024-03-29T02:32:58;1.00;;;1.00;;
8929;SDS011;4500;49.074;9.110;2024-03-29T02:35:24;1.10;;;1.10;;
8929;SDS011;4500;49.074;9.110;2024-03-29T02:37:50;1.23;;;1.23;;
8929;SDS011;4500;49.074;9.110;2024-03-29T02:40:17;0.90;;;0.90;;
8929;SDS011;4500;49.074;9.110;2024-03-29T02:42:43;1.30;;;1.30;;
8929;SDS011;4500;49.074;9.110;2024-03-29T02:45:09;1.10;;;1.10;;
8929;SDS011;4500;49.074;9.110;2024-03-29T02:47:35;1.20;;;1.17;;
8929;SDS011;4500;49.074;9.110;2024-03-29T02:50:01;1.00;;;1.00;;
8929;SDS011;4500;49.074;9.110;2024-03-29T02:52:26;1.30;;;1.30;;
8929;SDS011;4500;49.074;9.110;2024-03-29T02:54:54;0.90;;;0.90;;
8929;SDS011;4500;49.074;9.110;2024-03-29T02:57:19;1.00;;;1.00;;
8929;SDS011;4500;49.074;9.110;2024-03-29T02:59:45;15.70;;;5.80;;
8929;SDS011;4500;49.074;9.110;2024-03-29T03:02:11;1.10;;;1.10;;
8929;SDS011;4500;49.074;9.110;2024-03-29T03:04:37;1.13;;;1.13;;
8929;SDS011;4500;49.074;9.110;2024-03-29T03:07:02;1.10;;;1.10;;
8929;SDS011;4500;49.074;9.110;2024-03-29T03:09:51;1.00;;;1.00;;
8929;SDS011;4500;49.074;9.110;2024-03-29T03:12:35;1.00;;;1.00;;
8929;SDS011;4500;49.074;9.110;2024-03-29T03:15:01;1.77;;;1.67;;
8929;SDS011;4500;49.074;9.110;2024-03-29T03:17:27;0.87;;;0.87;;
8929;SDS011;4500;49.074;9.110;2024-03-29T03:19:53;1.00;;;1.00;;
8929;SDS011;4500;49.074;9.110;2024-03-29T03:22:19;1.07;;;1.07;;
8929;SDS011;4500;49.074;9.110;2024-03-29T03:24:45;1.33;;;1.33;;
8929;SDS011;4500;49.074;9.110;2024-03-29T03:27:11;1.00;;;1.00;;
8929;SDS011;4500;49.074;9.110;2024-03-29T03:29:36;1.33;;;1.30;;
8929;SDS011;4500;49.074;9.110;2024-03-29T03:32:03;1.10;;;1.10;;
8929;SDS011;4500;49.074;9.110;2024-03-29T03:34:29;1.10;;;1.10;;
8929;SDS011;4500;49.074;9.110;2024-03-29T03:36:55;1.03;;;1.03;;
8929;SDS011;4500;49.074;9.110;2024-03-29T03:39:21;0.97;;;0.97;;
8929;SDS011;4500;49.074;9.110;2024-03-29T03:41:47;1.40;;;1.40;;
8929;SDS011;4500;49.074;9.110;2024-03-29T03:44:13;0.90;;;0.90;;
8929;SDS011;4500;49.074;9.110;2024-03-29T03:46:39;0.90;;;0.90;;
8929;SDS011;4500;49.074;9.110;2024-03-29T03:49:04;1.00;;;1.00;;
8929;SDS011;4500;49.074;9.110;2024-03-29T03:51:30;1.07;;;1.07;;
8929;SDS011;4500;49.074;9.110;2024-03-29T03:53:56;0.87;;;0.87;;
8929;SDS011;4500;49.074;9.110;2024-03-29T03:56:21;1.13;;;1.13;;
8929;SDS011;4500;49.074;9.110;2024-03-29T03:58:48;1.20;;;1.20;;
8929;SDS011;4500;49.074;9.110;2024-03-29T04:01:13;0.97;;;0.97;;
8929;SDS011;4500;49.074;9.110;2024-03-29T04:03:39;0.80;;;0.80;;
8929;SDS011;4500;49.074;9.110;2024-03-29T04:06:05;0.97;;;0.97;;
8929;SDS011;4500;49.074;9.110;2024-03-29T04:08:31;1.30;;;1.30;;
8929;SDS011;4500;49.074;9.110;2024-03-29T04:10:57;1.10;;;1.10;;
8929;SDS011;4500;49.074;9.110;2024-03-29T04:13:23;1.10;;;1.10;;
8929;SDS011;4500;49.074;9.110;2024-03-29T04:15:49;1.43;;;1.43;;
8929;SDS011;4500;49.074;9.110;2024-03-29T04:18:14;1.10;;;1.10;;
8929;SDS011;4500;49.074;9.110;2024-03-29T04:20:40;1.03;;;1.03;;
8929;SDS011;4500;49.074;9.110;2024-03-29T04:23:06;1.00;;;1.00;;
8929;SDS011;4500;49.074;9.110;2024-03-29T04:25:32;0.97;;;0.97;;
8929;SDS011;4500;49.074;9.110;2024-03-29T04:27:58;1.20;;;1.20;;
8929;SDS011;4500;49.074;9.110;2024-03-29T04:30:24;1.03;;;1.03;;
8929;SDS011;4500;49.074;9.110;2024-03-29T04:32:50;1.40;;;1.40;;
8929;SDS011;4500;49.074;9.110;2024-03-29T04:35:15;1.10;;;1.10;;
8929;SDS011;4500;49.074;9.110;2024-03-29T04:37:42;1.10;;;1.10;;
8929;SDS011;4500;49.074;9.110;2024-03-29T04:40:07;1.07;;;1.07;;
8929;SDS011;4500;49.074;9.110;2024-03-29T04:42:33;1.00;;;1.00;;
8929;SDS011;4500;49.074;9.110;2024-03-29T04:44:59;1.00;;;1.00;;
8929;SDS011;4500;49.074;9.110;2024-03-29T04:47:25;1.00;;;1.00;;
8929;SDS011;4500;49.074;9.110;2024-03-29T04:49:51;1.40;;;1.40;;
8929;SDS011;4500;49.074;9.110;2024-03-29T04:52:17;1.13;;;1.13;;
8929;SDS011;4500;49.074;9.110;2024-03-29T04:54:43;1.20;;;1.20;;
8929;SDS011;4500;49.074;9.110;2024-03-29T04:57:09;1.20;;;1.20;;
8929;SDS011;4500;49.074;9.110;2024-03-29T04:59:35;1.20;;;1.20;;
8929;SDS011;4500;49.074;9.110;2024-03-29T05:02:01;2.00;;;1.90;;
8929;SDS011;4500;49.074;9.110;2024-03-29T05:04:27;1.20;;;1.20;;
8929;SDS011;4500;49.074;9.110;2024-03-29T05:06:53;1.13;;;1.13;;
8929;SDS011;4500;49.074;9.110;2024-03-29T05:09:23;1.13;;;1.13;;
8929;SDS011;4500;49.074;9.110;2024-03-29T05:11:49;1.43;;;1.43;;
8929;SDS011;4500;49.074;9.110;2024-03-29T05:14:16;11.33;;;10.23;;
8929;SDS011;4500;49.074;9.110;2024-03-29T05:16:43;1.00;;;1.00;;
8929;SDS011;4500;49.074;9.110;2024-03-29T05:19:10;1.03;;;1.03;;
8929;SDS011;4500;49.074;9.110;2024-03-29T05:21:36;1.30;;;1.30;;
8929;SDS011;4500;49.074;9.110;2024-03-29T05:24:02;1.20;;;1.20;;
8929;SDS011;4500;49.074;9.110;2024-03-29T05:26:28;0.90;;;0.90;;
8929;SDS011;4500;49.074;9.110;2024-03-29T05:28:53;1.27;;;1.27;;
8929;SDS011;4500;49.074;9.110;2024-03-29T05:31:22;1.07;;;1.07;;
8929;SDS011;4500;49.074;9.110;2024-03-29T05:33:48;2.33;;;2.23;;
8929;SDS011;4500;49.074;9.110;2024-03-29T05:36:14;0.83;;;0.83;;
8929;SDS011;4500;49.074;9.110;2024-03-29T05:38:40;1.20;;;1.20;;
8929;SDS011;4500;49.074;9.110;2024-03-29T05:41:06;1.30;;;1.30;;
8929;SDS011;4500;49.074;9.110;2024-03-29T05:43:31;1.17;;;1.17;;
8929;SDS011;4500;49.074;9.110;2024-03-29T05:45:57;1.30;;;1.30;;
8929;SDS011;4500;49.074;9.110;2024-03-29T05:48:23;1.20;;;1.20;;
8929;SDS011;4500;49.074;9.110;2024-03-29T05:50:49;1.97;;;1.87;;
8929;SDS011;4500;49.074;9.110;2024-03-29T05:53:14;0.90;;;0.90;;
8929;SDS011;4500;49.074;9.110;2024-03-29T05:55:40;1.10;;;1.10;;
8929;SDS011;4500;49.074;9.110;2024-03-29T05:58:06;1.00;;;1.00;;
8929;SDS011;4500;49.074;9.110;2024-03-29T06:00:32;1.13;;;1.13;;
8929;SDS011;4500;49.074;9.110;2024-03-29T06:03:00;1.20;;;1.20;;
8929;SDS011;4500;49.074;9.110;2024-03-29T06:05:29;1.00;;;1.00;;
8929;SDS011;4500;49.074;9.110;2024-03-29T06:07:55;1.30;;;1.30;;
8929;SDS011;4500;49.074;9.110;2024-03-29T06:10:21;1.20;;;1.20;;
8929;SDS011;4500;49.074;9.110;2024-03-29T06:12:46;2.17;;;2.07;;
8929;SDS011;4500;49.074;9.110;2024-03-29T06:15:12;1.10;;;1.10;;
8929;SDS011;4500;49.074;9.110;2024-03-29T06:17:57;1.37;;;1.37;;
8929;SDS011;4500;49.074;9.110;2024-03-29T06:20:23;0.90;;;0.90;;
8929;SDS011;4500;49.074;9.110;2024-03-29T06:22:49;0.90;;;0.90;;
8929;SDS011;4500;49.074;9.110;2024-03-29T06:25:15;1.00;;;1.00;;
8929;SDS011;4500;49.074;9.110;2024-03-29T06:27:41;1.13;;;1.13;;
8929;SDS011;4500;49.074;9.110;2024-03-29T06:30:13;1.00;;;1.00;;
8929;SDS011;4500;49.074;9.110;2024-03-29T06:32:40;1.20;;;1.20;;
8929;SDS011;4500;49.074;9.110;2024-03-29T06:35:06;1.10;;;1.10;;
8929;SDS011;4500;49.074;9.110;2024-03-29T06:37:32;1.20;;;1.20;;
8929;SDS011;4500;49.074;9.110;2024-03-29T06:39:58;1.57;;;1.57;;
8929;SDS011;4500;49.074;9.110;2024-03-29T06:42:24;1.13;;;1.13;;
8929;SDS011;4500;49.074;9.110;2024-03-29T06:44:49;1.10;;;1.10;;
8929;SDS011;4500;49.074;9.110;2024-03-29T06:47:15;1.00;;;1.00;;
8929;SDS011;4500;49.074;9.110;2024-03-29T06:49:41;1.23;;;1.23;;
8929;SDS011;4500;49.074;9.110;2024-03-29T06:52:07;1.10;;;1.10;;
8929;SDS011;4500;49.074;9.110;2024-03-29T06:54:32;1.00;;;1.00;;
8929;SDS011;4500;49.074;9.110;2024-03-29T06:56:58;1.50;;;1.50;;
8929;SDS011;4500;49.074;9.110;2024-03-29T06:59:24;1.10;;;1.10;;
8929;SDS011;4500;49.074;9.110;2024-03-29T07:01:53;1.23;;;1.23;;
8929;SDS011;4500;49.074;9.110;2024-03-29T07:04:19;1.00;;;1.00;;
8929;SDS011;4500;49.074;9.110;2024-03-29T07:06:46;1.20;;;1.20;;
8929;SDS011;4500;49.074;9.110;2024-03-29T07:09:17;1.20;;;1.20;;
8929;SDS011;4500;49.074;9.110;2024-03-29T07:11:45;1.00;;;1.00;;
8929;SDS011;4500;49.074;9.110;2024-03-29T07:14:14;1.03;;;1.03;;
8929;SDS011;4500;49.074;9.110;2024-03-29T07:16:41;1.00;;;1.00;;
8929;SDS011;4500;49.074;9.110;2024-03-29T07:19:07;0.90;;;0.90;;
8929;SDS011;4500;49.074;9.110;2024-03-29T07:21:32;1.00;;;1.00;;
8929;SDS011;4500;49.074;9.110;2024-03-29T07:23:58;1.33;;;1.33;;
8929;SDS011;4500;49.074;9.110;2024-03-29T07:26:24;1.10;;;1.10;;
8929;SDS011;4500;49.074;9.110;2024-03-29T07:28:50;2.27;;;2.17;;
8929;SDS011;4500;49.074;9.110;2024-03-29T07:31:15;0.90;;;0.90;;
8929;SDS011;4500;49.074;9.110;2024-03-29T07:33:41;1.40;;;1.40;;
8929;SDS011;4500;49.074;9.110;2024-03-29T07:36:07;0.97;;;0.97;;
8929;SDS011;4500;49.074;9.110;2024-03-29T07:38:36;1.10;;;1.10;;
8929;SDS011;4500;49.074;9.110;2024-03-29T07:41:03;1.27;;;1.27;;
8929;SDS011;4500;49.074;9.110;2024-03-29T07:43:41;1.00;;;1.00;;
8929;SDS011;4500;49.074;9.110;2024-03-29T07:46:17;0.73;;;0.73;;
8929;SDS011;4500;49.074;9.110;2024-03-29T07:48:43;0.87;;;0.87;;
8929;SDS011;4500;49.074;9.110;2024-03-29T07:51:09;0.97;;;0.97;;
8929;SDS011;4500;49.074;9.110;2024-03-29T07:53:34;0.90;;;0.90;;
8929;SDS011;4500;49.074;9.110;2024-03-29T07:56:00;1.47;;;1.47;;
8929;SDS011;4500;49.074;9.110;2024-03-29T07:58:26;1.20;;;1.20;;
8929;SDS011;4500;49.074;9.110;2024-03-29T08:00:52;1.00;;;1.00;;
8929;SDS011;4500;49.074;9.110;2024-03-29T08:03:18;1.00;;;1.00;;
8929;SDS011;4500;49.074;9.110;2024-03-29T08:05:55;1.00;;;1.00;;
8929;SDS011;4500;49.074;9.110;2024-03-29T08:08:24;1.13;;;1.13;;
8929;SDS011;4500;49.074;9.110;2024-03-29T08:10:53;1.33;;;1.33;;
8929;SDS011;4500;49.074;9.110;2024-03-29T08:13:19;1.10;;;1.10;;
8929;SDS011;4500;49.074;9.110;2024-03-29T08:15:46;1.00;;;1.00;;
8929;SDS011;4500;49.074;9.110;2024-03-29T08:18:12;0.90;;;0.90;;
8929;SDS011;4500;49.074;9.110;2024-03-29T08:20:38;1.57;;;1.57;;
8929;SDS011;4500;49.074;9.110;2024-03-29T08:23:04;1.53;;;1.53;;
8929;SDS011;4500;49.074;9.110;2024-03-29T08:25:30;1.33;;;1.33;;
8929;SDS011;4500;49.074;9.110;2024-03-29T08:27:55;1.40;;;1.40;;
8929;SDS011;4500;49.074;9.110;2024-03-29T08:30:25;1.00;;;1.00;;
8929;SDS011;4500;49.074;9.110;2024-03-29T08:32:51;1.10;;;1.10;;
8929;SDS011;4500;49.074;9.110;2024-03-29T08:35:18;0.90;;;0.90;;
8929;SDS011;4500;49.074;9.110;2024-03-29T08:37:45;1.13;;;1.13;;
8929;SDS011;4500;49.074;9.110;2024-03-29T08:40:11;1.00;;;1.00;;
8929;SDS011;4500;49.074;9.110;2024-03-29T08:42:37;1.20;;;1.20;;
8929;SDS011;4500;49.074;9.110;2024-03-29T08:45:04;1.37;;;1.37;;
8929;SDS011;4500;49.074;9.110;2024-03-29T08:47:33;1.03;;;1.03;;
8929;SDS011;4500;49.074;9.110;2024-03-29T08:49:59;1.50;;;1.50;;
8929;SDS011;4500;49.074;9.110;2024-03-29T08:52:25;1.20;;;1.20;;
8929;SDS011;4500;49.074;9.110;2024-03-29T08:54:50;2.07;;;2.00;;
8929;SDS011;4500;49.074;9.110;2024-03-29T08:57:16;1.00;;;1.00;;
8929;SDS011;4500;49.074;9.110;2024-03-29T08:59:42;1.30;;;1.30;;
8929;SDS011;4500;49.074;9.110;2024-03-29T09:02:08;1.30;;;1.30;;
8929;SDS011;4500;49.074;9.110;2024-03-29T09:04:34;0.90;;;0.90;;
8929;SDS011;4500;49.074;9.110;2024-03-29T09:07:00;1.67;;;1.60;;
8929;SDS011;4500;49.074;9.110;2024-03-29T09:09:29;1.43;;;1.43;;
8929;SDS011;4500;49.074;9.110;2024-03-29T09:11:56;1.10;;;1.10;;
8929;SDS011;4500;49.074;9.110;2024-03-29T09:14:22;0.73;;;0.73;;
8929;SDS011;4500;49.074;9.110;2024-03-29T09:16:49;1.17;;;1.17;;
8929;SDS011;4500;49.074;9.110;2024-03-29T09:19:15;1.20;;;1.20;;
8929;SDS011;4500;49.074;9.110;2024-03-29T09:21:41;1.00;;;1.00;;
8929;SDS011;4500;49.074;9.110;2024-03-29T09:24:07;1.30;;;1.30;;
8929;SDS011;4500;49.074;9.110;2024-03-29T09:26:33;0.87;;;0.87;;
8929;SDS011;4500;49.074;9.110;2024-03-29T09:28:58;1.50;;;1.50;;
8929;SDS011;4500;49.074;9.110;2024-03-29T09:31:24;1.00;;;1.00;;
8929;SDS011;4500;49.074;9.110;2024-03-29T09:33:50;2.80;;;2.60;;
8929;SDS011;4500;49.074;9.110;2024-03-29T09:36:22;1.00;;;1.00;;
8929;SDS011;4500;49.074;9.110;2024-03-29T09:38:49;1.13;;;1.13;;
8929;SDS011;4500;49.074;9.110;2024-03-29T09:41:16;1.20;;;1.20;;
8929;SDS011;4500;49.074;9.110;2024-03-29T09:43:44;1.10;;;1.10;;
8929;SDS011;4500;49.074;9.110;2024-03-29T09:46:13;1.00;;;1.00;;
8929;SDS011;4500;49.074;9.110;2024-03-29T09:48:40;1.10;;;1.10;;
8929;SDS011;4500;49.074;9.110;2024-03-29T09:51:06;2.33;;;2.23;;
8929;SDS011;4500;49.074;9.110;2024-03-29T09:53:34;1.00;;;1.00;;
8929;SDS011;4500;49.074;9.110;2024-03-29T09:56:02;1.30;;;1.30;;
8929;SDS011;4500;49.074;9.110;2024-03-29T09:58:30;1.50;;;1.50;;
8929;SDS011;4500;49.074;9.110;2024-03-29T10:01:00;2.33;;;2.23;;
8929;SDS011;4500;49.074;9.110;2024-03-29T10:03:29;1.00;;;1.00;;
8929;SDS011;4500;49.074;9.110;2024-03-29T10:05:59;2.73;;;2.63;;
8929;SDS011;4500;49.074;9.110;2024-03-29T10:08:29;1.30;;;1.30;;
8929;SDS011;4500;49.074;9.110;2024-03-29T10:10:58;1.00;;;1.00;;
8929;SDS011;4500;49.074;9.110;2024-03-29T10:13:24;1.10;;;1.10;;
8929;SDS011;4500;49.074;9.110;2024-03-29T10:15:50;1.10;;;1.10;;
8929;SDS011;4500;49.074;9.110;2024-03-29T10:18:22;1.53;;;1.43;;
8929;SDS011;4500;49.074;9.110;2024-03-29T10:21:04;0.93;;;0.93;;
8929;SDS011;4500;49.074;9.110;2024-03-29T10:23:32;1.10;;;1.10;;
8929;SDS011;4500;49.074;9.110;2024-03-29T10:25:58;1.83;;;1.73;;
8929;SDS011;4500;49.074;9.110;2024-03-29T10:28:27;1.10;;;1.10;;
8929;SDS011;4500;49.074;9.110;2024-03-29T10:30:58;1.87;;;1.77;;
8929;SDS011;4500;49.074;9.110;2024-03-29T10:33:27;1.20;;;1.20;;
8929;SDS011;4500;49.074;9.110;2024-03-29T10:35:55;1.23;;;1.20;;
8929;SDS011;4500;49.074;9.110;2024-03-29T10:38:24;1.20;;;1.20;;
8929;SDS011;4500;49.074;9.110;2024-03-29T10:40:51;0.90;;;0.90;;
8929;SDS011;4500;49.074;9.110;2024-03-29T10:43:17;1.00;;;1.00;;
8929;SDS011;4500;49.074;9.110;2024-03-29T10:45:44;1.40;;;1.40;;
8929;SDS011;4500;49.074;9.110;2024-03-29T10:48:12;1.10;;;1.10;;
8929;SDS011;4500;49.074;9.110;2024-03-29T10:50:40;1.00;;;1.00;;
8929;SDS011;4500;49.074;9.110;2024-03-29T10:53:07;1.40;;;1.40;;
8929;SDS011;4500;49.074;9.110;2024-03-29T10:55:34;0.90;;;0.90;;
8929;SDS011;4500;49.074;9.110;2024-03-29T10:58:01;1.00;;;1.00;;
8929;SDS011;4500;49.074;9.110;2024-03-29T11:00:29;0.90;;;0.90;;
8929;SDS011;4500;49.074;9.110;2024-03-29T11:03:11;2.00;;;1.90;;
8929;SDS011;4500;49.074;9.110;2024-03-29T11:05:48;1.00;;;1.00;;
8929;SDS011;4500;49.074;9.110;2024-03-29T11:08:19;0.80;;;0.80;;
8929;SDS011;4500;49.074;9.110;2024-03-29T11:10:51;0.97;;;0.97;;
8929;SDS011;4500;49.074;9.110;2024-03-29T11:13:25;1.20;;;1.20;;
8929;SDS011;4500;49.074;9.110;2024-03-29T11:16:10;1.80;;;1.70;;
8929;SDS011;4500;49.074;9.110;2024-03-29T11:18:36;0.97;;;0.97;;
8929;SDS011;4500;49.074;9.110;2024-03-29T11:21:03;1.50;;;1.50;;
8929;SDS011;4500;49.074;9.110;2024-03-29T11:23:33;1.10;;;1.10;;
8929;SDS011;4500;49.074;9.110;2024-03-29T11:25:59;0.77;;;0.77;;
8929;SDS011;4500;49.074;9.110;2024-03-29T11:28:26;1.10;;;1.10;;
8929;SDS011;4500;49.074;9.110;2024-03-29T11:31:00;0.90;;;0.90;;
8929;SDS011;4500;49.074;9.110;2024-03-29T11:33:43;1.87;;;1.77;;
8929;SDS011;4500;49.074;9.110;2024-03-29T11:36:20;1.43;;;1.43;;
8929;SDS011;4500;49.074;9.110;2024-03-29T11:38:49;1.00;;;1.00;;
8929;SDS011;4500;49.074;9.110;2024-03-29T11:41:17;1.20;;;1.20;;
8929;SDS011;4500;49.074;9.110;2024-03-29T11:43:49;1.00;;;1.00;;
8929;SDS011;4500;49.074;9.110;2024-03-29T11:46:16;0.80;;;0.80;;
8929;SDS011;4500;49.074;9.110;2024-03-29T11:48:42;1.03;;;1.03;;
8929;SDS011;4500;49.074;9.110;2024-03-29T11:51:10;1.30;;;1.30;;
8929;SDS011;4500;49.074;9.110;2024-03-29T11:53:39;1.30;;;1.30;;
8929;SDS011;4500;49.074;9.110;2024-03-29T11:56:08;1.10;;;1.10;;
8929;SDS011;4500;49.074;9.110;2024-03-29T11:58:35;1.37;;;1.37;;
8929;SDS011;4500;49.074;9.110;2024-03-29T12:01:01;1.83;;;1.73;;
8929;SDS011;4500;49.074;9.110;2024-03-29T12:03:28;0.97;;;0.97;;
8929;SDS011;4500;49.074;9.110;2024-03-29T12:05:55;1.03;;;1.03;;
8929;SDS011;4500;49.074;9.110;2024-03-29T12:08:30;1.27;;;1.27;;
8929;SDS011;4500;49.074;9.110;2024-03-29T12:11:00;0.70;;;0.70;;
8929;SDS011;4500;49.074;9.110;2024-03-29T12:13:27;1.40;;;1.40;;
8929;SDS011;4500;49.074;9.110;2024-03-29T12:15:53;1.20;;;1.20;;
8929;SDS011;4500;49.074;9.110;2024-03-29T12:18:20;0.90;;;0.90;;
8929;SDS011;4500;49.074;9.110;2024-03-29T12:20:47;1.43;;;1.40;;
8929;SDS011;4500;49.074;9.110;2024-03-29T12:23:15;1.27;;;1.27;;
8929;SDS011;4500;49.074;9.110;2024-03-29T12:25:41;0.70;;;0.70;;
8929;SDS011;4500;49.074;9.110;2024-03-29T12:28:08;1.13;;;1.13;;
8929;SDS011;4500;49.074;9.110;2024-03-29T12:30:35;0.87;;;0.87;;
8929;SDS011;4500;49.074;9.110;2024-03-29T12:33:05;1.13;;;1.10;;
8929;SDS011;4500;49.074;9.110;2024-03-29T12:35:36;1.47;;;1.47;;
8929;SDS011;4500;49.074;9.110;2024-03-29T12:38:02;1.30;;;1.30;;
8929;SDS011;4500;49.074;9.110;2024-03-29T12:40:30;0.80;;;0.80;;
8929;SDS011;4500;49.074;9.110;2024-03-29T12:43:04;1.87;;;1.77;;
8929;SDS011;4500;49.074;9.110;2024-03-29T12:45:30;1.50;;;1.50;;
8929;SDS011;4500;49.074;9.110;2024-03-29T12:48:00;6.20;;;5.97;;
8929;SDS011;4500;49.074;9.110;2024-03-29T12:50:27;2.00;;;1.90;;
8929;SDS011;4500;49.074;9.110;2024-03-29T12:52:54;0.80;;;0.80;;
8929;SDS011;4500;49.074;9.110;2024-03-29T12:55:22;2.60;;;2.40;;
8929;SDS011;4500;49.074;9.110;2024-03-29T12:57:49;1.87;;;1.77;;
8929;SDS011;4500;49.074;9.110;2024-03-29T13:00:18;1.00;;;1.00;;
8929;SDS011;4500;49.074;9.110;2024-03-29T13:02:44;0.93;;;0.93;;
8929;SDS011;4500;49.074;9.110;2024-03-29T13:05:10;1.10;;;1.10;;
8929;SDS011;4500;49.074;9.110;2024-03-29T13:07:36;0.80;;;0.80;;
8929;SDS011;4500;49.074;9.110;2024-03-29T13:10:02;0.70;;;0.70;;
8929;SDS011;4500;49.074;9.110;2024-03-29T13:12:36;1.10;;;1.10;;
8929;SDS011;4500;49.074;9.110;2024-03-29T13:15:03;1.00;;;1.00;;
8929;SDS011;4500;49.074;9.110;2024-03-29T13:17:39;0.93;;;0.93;;
8929;SDS011;4500;49.074;9.110;2024-03-29T13:20:05;1.23;;;1.23;;
8929;SDS011;4500;49.074;9.110;2024-03-29T13:22:31;0.87;;;0.87;;
8929;SDS011;4500;49.074;9.110;2024-03-29T13:24:56;0.70;;;0.70;;
8929;SDS011;4500;49.074;9.110;2024-03-29T13:27:22;0.70;;;0.70;;
8929;SDS011;4500;49.074;9.110;2024-03-29T13:29:48;0.80;;;0.80;;
8929;SDS011;4500;49.074;9.110;2024-03-29T13:32:14;1.10;;;1.10;;
8929;SDS011;4500;49.074;9.110;2024-03-29T13:34:40;0.80;;;0.80;;
8929;SDS011;4500;49.074;9.110;2024-03-29T13:37:06;0.70;;;0.70;;
8929;SDS011;4500;49.074;9.110;2024-03-29T13:39:31;1.00;;;1.00;;
8929;SDS011;4500;49.074;9.110;2024-03-29T13:41:57;0.80;;;0.80;;
8929;SDS011;4500;49.074;9.110;2024-03-29T13:44:23;16.43;;;15.63;;
8929;SDS011;4500;49.074;9.110;2024-03-29T13:46:49;14.70;;;14.00;;
8929;SDS011;4500;49.074;9.110;2024-03-29T13:49:16;15.30;;;14.60;;
8929;SDS011;4500;49.074;9.110;2024-03-29T13:51:46;14.23;;;13.57;;
8929;SDS011;4500;49.074;9.110;2024-03-29T13:54:12;11.70;;;11.17;;
8929;SDS011;4500;49.074;9.110;2024-03-29T13:56:38;13.10;;;12.50;;
8929;SDS011;4500;49.074;9.110;2024-03-29T13:59:04;19.97;;;18.97;;
8929;SDS011;4500;49.074;9.110;2024-03-29T14:01:30;17.13;;;16.30;;
8929;SDS011;4500;49.074;9.110;2024-03-29T14:03:56;16.63;;;15.83;;
8929;SDS011;4500;49.074;9.110;2024-03-29T14:06:22;0.77;;;0.77;;
8929;SDS011;4500;49.074;9.110;2024-03-29T14:08:47;16.90;;;16.10;;
8929;SDS011;4500;49.074;9.110;2024-03-29T14:11:13;15.33;;;14.63;;
8929;SDS011;4500;49.074;9.110;2024-03-29T14:13:40;13.83;;;13.13;;
8929;SDS011;4500;49.074;9.110;2024-03-29T14:18:42;3.67;;;3.57;;
8929;SDS011;4500;49.074;9.110;2024-03-29T14:24:15;0.70;;;0.70;;
8929;SDS011;4500;49.074;9.110;2024-03-29T14:26:42;0.60;;;0.60;;
8929;SDS011;4500;49.074;9.110;2024-03-29T14:29:09;4.43;;;4.23;;
8929;SDS011;4500;49.074;9.110;2024-03-29T14:31:37;3.83;;;3.73;;
8929;SDS011;4500;49.074;9.110;2024-03-29T14:34:03;3.10;;;3.00;;
8929;SDS011;4500;49.074;9.110;2024-03-29T14:39:05;1.00;;;1.00;;
8929;SDS011;4500;49.074;9.110;2024-03-29T14:41:31;2.03;;;1.93;;
8929;SDS011;4500;49.074;9.110;2024-03-29T14:43:57;0.90;;;0.90;;
8929;SDS011;4500;49.074;9.110;2024-03-29T14:46:23;0.80;;;0.80;;
8929;SDS011;4500;49.074;9.110;2024-03-29T14:48:49;0.90;;;0.90;;
8929;SDS011;4500;49.074;9.110;2024-03-29T14:51:15;35.10;;;9.50;;
8929;SDS011;4500;49.074;9.110;2024-03-29T14:53:42;1.77;;;1.77;;
8929;SDS011;4500;49.074;9.110;2024-03-29T14:56:13;1.10;;;1.10;;
8929;SDS011;4500;49.074;9.110;2024-03-29T14:58:39;1.50;;;1.50;;
8929;SDS011;4500;49.074;9.110;2024-03-29T15:01:05;1.00;;;1.00;;
8929;SDS011;4500;49.074;9.110;2024-03-29T15:03:31;1.20;;;1.20;;
8929;SDS011;4500;49.074;9.110;2024-03-29T15:05:56;1.07;;;1.07;;
8929;SDS011;4500;49.074;9.110;2024-03-29T15:08:22;0.90;;;0.90;;
8929;SDS011;4500;49.074;9.110;2024-03-29T15:10:57;0.90;;;0.90;;
8929;SDS011;4500;49.074;9.110;2024-03-29T15:13:24;0.90;;;0.90;;
8929;SDS011;4500;49.074;9.110;2024-03-29T15:15:56;0.80;;;0.80;;
8929;SDS011;4500;49.074;9.110;2024-03-29T15:18:22;0.90;;;0.90;;
8929;SDS011;4500;49.074;9.110;2024-03-29T15:23:24;0.80;;;0.80;;
8929;SDS011;4500;49.074;9.110;2024-03-29T15:25:52;1.10;;;1.10;;